createdAt,value
2022-08-07T00:01:44.121Z,100353.94
2022-08-07T00:04:45.391Z,100360.28
2022-08-07T00:07:48.653Z,100373.78
2022-08-07T00:11:01.268Z,100368.16
2022-08-07T00:14:09.023Z,100376.94
2022-08-07T00:17:13.957Z,100370.06
2022-08-07T00:20:29.521Z,100365.97
2022-08-07T00:23:39.520Z,100364.97
2022-08-07T00:26:49.565Z,100367.19
2022-08-07T00:30:06.280Z,100358.19
2022-08-07T00:33:28.921Z,100376.63
2022-08-07T00:36:35.914Z,100362.78
2022-08-07T00:39:45.034Z,100369.16
2022-08-07T00:42:50.261Z,100358.78
2022-08-07T00:45:53.143Z,100376.72
2022-08-07T00:48:56.882Z,100367.75
2022-08-07T00:52:09.917Z,100376.44
2022-08-07T00:55:12.970Z,100376.91
2022-08-07T00:58:21.395Z,100382.84
2022-08-07T01:01:24.666Z,100378.78
2022-08-07T01:04:27.465Z,100375.59
2022-08-07T01:07:33.381Z,100376.56
2022-08-07T01:10:36.442Z,100384.19
2022-08-07T01:13:39.833Z,100385.87
2022-08-07T01:16:59.279Z,100384.22
2022-08-07T01:20:08.325Z,100370.41
2022-08-07T01:23:13.883Z,100388.50
2022-08-07T01:26:20.904Z,100396.31
2022-08-07T01:29:27.889Z,100395.59
2022-08-07T01:32:32.386Z,100392.09
2022-08-07T01:35:36.922Z,100390.66
2022-08-07T01:38:57.408Z,100393.69
2022-08-07T01:42:36.919Z,100396.91
2022-08-07T01:45:37.050Z,100396.97
2022-08-07T01:48:48.010Z,100393.41
2022-08-07T01:52:01.619Z,100396.47
2022-08-07T01:55:10.249Z,100385.06
2022-08-07T01:58:33.226Z,100385.97
2022-08-07T02:01:59.830Z,100389.41
2022-08-07T02:05:16.069Z,100372.50
2022-08-07T02:08:40.568Z,100394.06
2022-08-07T02:12:03.038Z,100394.44
2022-08-07T02:15:10.307Z,100395.56
2022-08-07T02:18:15.340Z,100391.44
2022-08-07T02:21:21.891Z,100385.84
2022-08-07T02:24:26.337Z,100392.22
2022-08-07T02:27:34.748Z,100395.06
2022-08-07T02:30:39.592Z,100407.13
2022-08-07T02:34:01.750Z,100380.00
2022-08-07T02:37:08.912Z,100403.00
2022-08-07T02:40:31.023Z,100405.69
2022-08-07T02:43:39.629Z,100405.78
2022-08-07T02:46:46.545Z,100405.81
2022-08-07T02:49:59.029Z,100409.25
2022-08-07T02:53:10.972Z,100416.50
2022-08-07T02:56:21.737Z,100411.59
2022-08-07T02:59:27.639Z,100414.19
2022-08-07T03:02:33.947Z,100408.03
2022-08-07T03:05:38.099Z,100415.19
2022-08-07T03:08:41.942Z,100409.81
2022-08-07T03:11:52.315Z,100423.87
2022-08-07T03:15:02.370Z,100421.56
2022-08-07T03:18:11.575Z,100418.41
2022-08-07T03:21:20.917Z,100416.25
2022-08-07T03:24:27.908Z,100424.03
2022-08-07T03:27:59.015Z,100411.41
2022-08-07T03:31:16.519Z,100420.22
2022-08-07T03:34:22.547Z,100434.09
2022-08-07T03:37:28.109Z,100427.63
2022-08-07T03:40:37.236Z,100422.03
2022-08-07T03:43:56.839Z,100420.47
2022-08-07T03:47:14.066Z,100438.22
2022-08-07T03:50:23.098Z,100466.44
2022-08-07T03:53:50.248Z,100439.19
2022-08-07T03:57:03.488Z,100431.84
2022-08-07T04:00:12.186Z,100452.59
2022-08-07T04:03:18.475Z,100455.78
2022-08-07T04:06:37.119Z,100453.16
2022-08-07T04:09:50.333Z,100459.25
2022-08-07T04:12:55.359Z,100463.72
2022-08-07T04:15:58.710Z,100455.75
2022-08-07T04:19:15.179Z,100463.81
2022-08-07T04:22:19.644Z,100459.91
2022-08-07T04:25:29.317Z,100475.97
2022-08-07T04:28:33.386Z,100463.87
2022-08-07T04:32:02.994Z,100465.94
2022-08-07T04:35:05.791Z,100482.06
2022-08-07T04:38:11.550Z,100478.06
2022-08-07T04:41:19.028Z,100478.53
2022-08-07T04:44:23.859Z,100475.31
2022-08-07T04:48:01.133Z,100472.16
2022-08-07T04:51:10.232Z,100487.16
2022-08-07T04:54:41.302Z,100482.91
2022-08-07T04:58:33.682Z,100495.84
2022-08-07T05:01:50.569Z,100491.00
2022-08-07T05:05:53.799Z,100502.00
2022-08-07T05:09:01.143Z,100488.53
2022-08-07T05:12:09.115Z,100491.41
2022-08-07T05:15:24.090Z,100495.59
2022-08-07T05:18:32.055Z,100499.34
2022-08-07T05:21:58.941Z,100496.59
2022-08-07T05:25:00.896Z,100510.97
2022-08-07T05:28:20.443Z,100506.88
2022-08-07T05:31:35.366Z,100501.97
2022-08-07T05:34:42.016Z,100499.59
2022-08-07T05:37:46.460Z,100503.31
2022-08-07T05:41:14.644Z,100507.94
2022-08-07T05:44:29.385Z,100520.66
2022-08-07T05:47:38.210Z,100523.72
2022-08-07T05:51:01.142Z,100505.28
2022-08-07T05:54:09.216Z,100529.53
2022-08-07T05:57:34.618Z,100526.62
2022-08-07T06:00:42.068Z,100526.31
2022-08-07T06:03:58.705Z,100527.12
2022-08-07T06:07:06.095Z,100534.31
2022-08-07T06:10:15.421Z,100541.59
2022-08-07T06:13:20.890Z,100532.22
2022-08-07T06:16:50.544Z,100542.31
2022-08-07T06:20:04.068Z,100544.63
2022-08-07T06:23:45.754Z,100543.31
2022-08-07T06:26:32.658Z,100556.50
2022-08-07T06:29:38.990Z,100551.63
2022-08-07T06:32:42.220Z,100559.03
2022-08-07T06:35:48.130Z,100577.59
2022-08-07T06:40:13.667Z,100557.53
2022-08-07T06:42:37.572Z,100578.19
2022-08-07T06:45:44.299Z,100583.78
2022-08-07T06:48:48.357Z,100577.00
2022-08-07T06:51:57.933Z,100572.53
2022-08-07T06:55:53.803Z,100568.03
2022-08-07T07:00:14.842Z,100574.41
2022-08-07T07:02:49.236Z,100572.44
2022-08-07T07:06:04.026Z,100575.63
2022-08-07T07:09:17.492Z,100575.81
2022-08-07T07:12:33.552Z,100573.13
2022-08-07T07:15:43.157Z,100566.53
2022-08-07T07:18:56.251Z,100584.97
2022-08-07T07:22:05.490Z,100583.69
2022-08-07T07:26:35.786Z,100574.88
2022-08-07T07:29:40.117Z,100573.34
2022-08-07T07:32:18.813Z,100578.31
2022-08-07T07:35:23.133Z,100572.44
2022-08-07T07:38:26.470Z,100586.28
2022-08-07T07:41:50.743Z,100586.63
2022-08-07T07:45:02.569Z,100579.00
2022-08-07T07:48:07.711Z,100585.75
2022-08-07T07:51:15.618Z,100584.81
2022-08-07T07:54:24.983Z,100578.06
2022-08-07T07:57:52.163Z,100580.69
2022-08-07T08:00:54.797Z,100585.03
2022-08-07T08:04:09.436Z,100590.09
2022-08-07T08:07:15.604Z,100598.91
2022-08-07T08:10:38.146Z,100580.97
2022-08-07T08:13:54.294Z,100578.31
2022-08-07T08:17:55.497Z,100585.84
2022-08-07T08:20:31.970Z,100566.37
2022-08-07T08:23:54.433Z,100571.50
2022-08-07T08:27:09.408Z,100559.44
2022-08-07T08:30:20.134Z,100568.34
2022-08-07T08:33:28.941Z,100579.31
2022-08-07T08:36:39.578Z,100582.59
2022-08-07T08:39:55.144Z,100577.75
2022-08-07T08:43:20.011Z,100586.16
2022-08-07T08:46:52.034Z,100576.81
2022-08-07T08:50:39.323Z,100575.87
2022-08-07T08:53:54.917Z,100590.06
2022-08-07T08:57:02.344Z,100572.28
2022-08-07T09:00:09.081Z,100591.47
2022-08-07T09:03:47.598Z,100586.16
2022-08-07T09:06:56.475Z,100587.97
2022-08-07T09:10:07.995Z,100585.53
2022-08-07T09:13:37.735Z,100583.50
2022-08-07T09:16:47.529Z,100591.84
2022-08-07T09:20:34.632Z,100601.28
2022-08-07T09:24:30.645Z,100592.72
2022-08-07T09:27:59.482Z,100609.97
2022-08-07T09:31:11.847Z,100585.56
2022-08-07T09:34:27.673Z,100593.28
2022-08-07T09:37:48.199Z,100583.28
2022-08-07T09:41:03.553Z,100570.91
2022-08-07T09:44:40.477Z,100579.63
2022-08-07T09:48:11.693Z,100560.47
2022-08-07T09:52:10.152Z,100565.87
2022-08-07T09:56:03.151Z,100558.38
2022-08-07T09:58:58.879Z,100569.75
2022-08-07T10:02:03.133Z,100558.87
2022-08-07T10:06:00.390Z,100540.50
2022-08-07T10:09:16.151Z,100543.03
2022-08-07T10:12:39.609Z,100538.84
2022-08-07T10:16:27.069Z,100534.88
2022-08-07T10:19:43.510Z,100551.44
2022-08-07T10:23:03.100Z,100541.75
2022-08-07T10:26:57.939Z,100539.91
2022-08-07T10:30:13.217Z,100540.47
2022-08-07T10:34:05.769Z,100533.13
2022-08-07T10:38:00.640Z,100522.75
2022-08-07T10:41:08.175Z,100521.41
2022-08-07T10:44:33.893Z,100524.34
2022-08-07T10:48:18.320Z,100521.84
2022-08-07T10:51:39.740Z,100527.81
2022-08-07T10:55:26.784Z,100520.09
2022-08-07T10:59:21.552Z,100507.81
2022-08-07T11:02:33.597Z,100512.59
2022-08-07T11:06:08.692Z,100510.22
2022-08-07T11:10:09.641Z,100502.69
2022-08-07T11:13:42.493Z,100500.97
2022-08-07T11:16:52.790Z,100496.88
2022-08-07T11:20:10.945Z,100495.22
2022-08-07T11:23:30.857Z,100489.69
2022-08-07T11:27:02.073Z,100498.34
2022-08-07T11:30:17.544Z,100485.59
2022-08-07T11:33:53.893Z,100479.94
2022-08-07T11:37:02.785Z,100493.00
2022-08-07T11:40:42.172Z,100489.56
2022-08-07T11:44:12.145Z,100476.03
2022-08-07T11:47:56.517Z,100486.47
2022-08-07T11:51:40.959Z,100476.84
2022-08-07T11:56:15.605Z,100483.03
2022-08-07T12:00:07.635Z,100480.81
2022-08-07T12:02:59.905Z,100474.75
2022-08-07T12:07:00.329Z,100469.09
2022-08-07T12:10:14.662Z,100471.22
2022-08-07T12:13:36.665Z,100473.12
2022-08-07T12:16:53.821Z,100478.78
2022-08-07T12:20:30.625Z,100466.81
2022-08-07T12:24:05.425Z,100471.56
2022-08-07T12:27:18.623Z,100468.94
2022-08-07T12:30:39.194Z,100466.06
2022-08-07T12:34:01.389Z,100464.16
2022-08-07T12:37:08.146Z,100476.03
2022-08-07T12:40:46.700Z,100472.59
2022-08-07T12:44:02.451Z,100475.16
2022-08-07T12:47:50.234Z,100475.09
2022-08-07T12:51:17.109Z,100474.37
2022-08-07T12:54:38.387Z,100450.41
2022-08-07T12:58:01.328Z,100457.31
2022-08-07T13:01:32.071Z,100449.66
2022-08-07T13:05:01.673Z,100457.97
2022-08-07T13:08:42.881Z,100448.19
2022-08-07T13:12:10.082Z,100446.38
2022-08-07T13:15:34.590Z,100455.00
2022-08-07T13:19:21.922Z,100456.75
2022-08-07T13:22:40.753Z,100439.72
2022-08-07T13:26:15.928Z,100428.31
2022-08-07T13:29:34.679Z,100446.16
2022-08-07T13:33:01.613Z,100438.34
2022-08-07T13:36:14.656Z,100435.38
2022-08-07T13:40:33.882Z,100437.03
2022-08-07T13:43:06.781Z,100422.31
2022-08-07T13:46:22.060Z,100428.75
2022-08-07T13:50:34.653Z,100431.06
2022-08-07T13:53:00.815Z,100421.22
2022-08-07T13:56:05.669Z,100415.09
2022-08-07T13:59:13.163Z,100409.44
2022-08-07T14:02:33.421Z,100412.34
2022-08-07T14:05:46.354Z,100405.44
2022-08-07T14:08:54.570Z,100407.16
2022-08-07T14:12:04.733Z,100405.41
2022-08-07T14:15:22.425Z,100398.41
2022-08-07T14:18:33.271Z,100391.44
2022-08-07T14:22:02.406Z,100395.09
2022-08-07T14:25:11.850Z,100386.16
2022-08-07T14:28:19.183Z,100395.25
2022-08-07T14:31:25.364Z,100388.25
2022-08-07T14:34:48.881Z,100392.34
2022-08-07T14:38:05.528Z,100391.50
2022-08-07T14:41:15.134Z,100395.28
2022-08-07T14:44:20.153Z,100396.91
2022-08-07T14:51:01.969Z,100389.50
2022-08-07T14:57:54.728Z,100389.78
2022-08-07T15:00:57.942Z,100368.28
2022-08-07T15:04:06.585Z,100380.97
2022-08-07T15:07:17.724Z,100378.88
2022-08-07T15:10:29.919Z,100378.97
2022-08-07T15:13:35.837Z,100381.03
2022-08-07T15:17:16.727Z,100374.69
2022-08-07T15:27:20.618Z,100369.69
2022-08-07T15:30:28.572Z,100378.69
2022-08-07T15:33:36.320Z,100375.59
2022-08-07T15:37:04.132Z,100373.59
2022-08-07T15:40:11.280Z,100373.69
2022-08-07T15:43:33.330Z,100374.31
2022-08-07T15:46:47.371Z,100384.62
2022-08-07T15:53:24.816Z,100370.22
2022-08-07T15:56:48.232Z,100368.09
2022-08-07T15:59:53.218Z,100376.44
2022-08-07T16:03:21.877Z,100375.50
2022-08-07T16:06:50.559Z,100368.28
2022-08-07T16:09:57.385Z,100369.41
2022-08-07T16:13:57.644Z,100362.22
2022-08-07T16:18:02.918Z,100354.53
2022-08-07T16:22:01.323Z,100360.69
2022-08-07T16:24:52.845Z,100359.19
2022-08-07T16:27:58.640Z,100355.72
2022-08-07T16:31:51.668Z,100353.47
2022-08-07T16:35:50.693Z,100357.59
2022-08-07T16:39:40.649Z,100354.38
2022-08-07T16:44:03.674Z,100358.69
2022-08-07T16:47:51.439Z,100347.44
2022-08-07T16:51:20.882Z,100359.50
2022-08-07T16:54:33.040Z,100360.47
2022-08-07T16:58:04.433Z,100360.50
2022-08-07T17:01:34.353Z,100357.28
2022-08-07T17:05:01.163Z,100368.38
2022-08-07T17:08:13.341Z,100368.19
2022-08-07T17:12:01.866Z,100367.31
2022-08-07T17:15:03.557Z,100376.72
2022-08-07T17:18:28.965Z,100364.25
2022-08-07T17:22:01.840Z,100372.09
2022-08-07T17:25:15.180Z,100368.41
2022-08-07T17:28:31.306Z,100372.16
2022-08-07T17:32:03.045Z,100362.94
2022-08-07T17:35:49.874Z,100354.34
2022-08-07T17:39:53.014Z,100351.00
2022-08-07T17:43:18.453Z,100361.56
2022-08-07T17:46:36.060Z,100353.41
2022-08-07T17:49:56.391Z,100360.09
2022-08-07T17:53:59.829Z,100367.69
2022-08-07T17:57:01.753Z,100373.34
2022-08-07T18:00:11.759Z,100351.88
2022-08-07T18:04:03.900Z,100364.47
2022-08-07T18:07:20.456Z,100370.31
2022-08-07T18:12:08.053Z,100381.38
2022-08-07T18:14:38.282Z,100377.56
2022-08-07T18:18:47.543Z,100394.31
2022-08-07T18:21:55.196Z,100388.00
2022-08-07T18:25:19.202Z,100382.78
2022-08-07T18:30:06.641Z,100386.84
2022-08-07T18:32:55.115Z,100376.91
2022-08-07T18:36:38.669Z,100406.87
2022-08-07T18:40:38.827Z,100406.00
2022-08-07T18:43:37.263Z,100409.66
2022-08-07T18:47:08.115Z,100412.56
2022-08-07T18:50:32.814Z,100413.22
2022-08-07T18:53:54.046Z,100411.75
2022-08-07T18:57:39.945Z,100420.75
2022-08-07T19:00:54.391Z,100428.13
2022-08-07T19:04:28.181Z,100412.22
2022-08-07T19:07:59.700Z,100432.28
2022-08-07T19:11:36.475Z,100421.78
2022-08-07T19:16:02.937Z,100424.06
2022-08-07T19:18:45.166Z,100432.72
2022-08-07T19:22:07.542Z,100434.75
2022-08-07T19:26:22.738Z,100437.28
2022-08-07T19:30:55.224Z,100434.34
2022-08-07T19:32:29.111Z,100451.19
2022-08-07T19:35:43.715Z,100462.56
2022-08-07T19:38:53.138Z,100459.00
2022-08-07T19:42:08.398Z,100467.72
2022-08-07T19:46:04.951Z,100462.44
2022-08-07T19:48:59.525Z,100459.97
2022-08-07T19:52:03.823Z,100469.97
2022-08-07T19:55:11.016Z,100464.06
2022-08-07T19:58:15.823Z,100473.12
2022-08-07T20:01:20.490Z,100469.53
2022-08-07T20:04:31.843Z,100470.66
2022-08-07T20:07:48.173Z,100466.72
2022-08-07T20:11:34.036Z,100470.81
2022-08-07T20:14:53.623Z,100474.25
2022-08-07T20:18:03.240Z,100478.88
2022-08-07T20:21:14.406Z,100483.09
2022-08-07T20:24:29.912Z,100486.22
2022-08-07T20:27:47.717Z,100483.09
2022-08-07T20:30:51.696Z,100484.50
2022-08-07T20:33:57.394Z,100487.78
2022-08-07T20:37:01.172Z,100492.13
2022-08-07T20:40:33.480Z,100502.09
2022-08-07T20:43:34.849Z,100500.66
2022-08-07T20:46:44.138Z,100504.25
2022-08-07T20:49:59.231Z,100495.97
2022-08-07T20:53:05.753Z,100506.44
2022-08-07T20:56:10.561Z,100508.78
2022-08-07T21:00:04.673Z,100497.69
2022-08-07T21:02:58.135Z,100488.09
2022-08-07T21:06:22.313Z,100501.47
2022-08-07T21:09:52.484Z,100499.62
2022-08-07T21:13:05.804Z,100504.69
2022-08-07T21:16:10.753Z,100505.06
2022-08-07T21:19:15.713Z,100505.97
2022-08-07T21:22:25.543Z,100503.97
2022-08-07T21:25:52.232Z,100506.44
2022-08-07T21:29:07.268Z,100519.38
2022-08-07T21:32:50.963Z,100530.41
2022-08-07T21:36:11.862Z,100533.38
2022-08-07T21:39:48.596Z,100539.72
2022-08-07T21:43:11.235Z,100540.28
2022-08-07T21:46:25.175Z,100541.47
2022-08-07T21:50:14.719Z,100545.31
2022-08-07T21:53:28.772Z,100546.66
2022-08-07T21:57:30.798Z,100552.25
2022-08-07T22:00:36.361Z,100544.81
2022-08-07T22:04:00.509Z,100528.06
2022-08-07T22:07:14.693Z,100529.44
2022-08-07T22:10:24.508Z,100541.87
2022-08-07T22:13:52.739Z,100543.72
2022-08-07T22:17:00.252Z,100541.50
2022-08-07T22:20:23.438Z,100547.00
2022-08-07T22:23:40.469Z,100539.78
2022-08-07T22:26:59.057Z,100535.53
2022-08-07T22:30:12.846Z,100531.38
2022-08-07T22:33:17.843Z,100536.19
2022-08-07T22:36:52.551Z,100531.03
2022-08-07T22:40:23.148Z,100532.53
2022-08-07T22:43:36.175Z,100526.88
2022-08-07T22:47:16.863Z,100526.34
2022-08-07T22:50:29.024Z,100547.81
2022-08-07T22:54:08.305Z,100533.38
2022-08-07T22:57:54.564Z,100529.28
2022-08-07T23:01:06.305Z,100533.75
2022-08-07T23:04:57.068Z,100537.81
2022-08-07T23:08:24.400Z,100520.38
2022-08-07T23:11:45.998Z,100533.03
2022-08-07T23:16:05.434Z,100533.00
2022-08-07T23:19:47.825Z,100522.94
2022-08-07T23:23:10.399Z,100531.78
2022-08-07T23:26:19.732Z,100518.59
2022-08-07T23:29:43.758Z,100529.41
2022-08-07T23:34:36.540Z,100530.09
2022-08-07T23:37:23.774Z,100525.22
2022-08-07T23:40:33.169Z,100533.34
2022-08-07T23:44:03.723Z,100541.50
2022-08-07T23:47:20.087Z,100535.87
2022-08-07T23:50:54.448Z,100540.22
2022-08-07T23:54:11.564Z,100546.94
2022-08-07T23:57:36.339Z,100546.34
